Weather at Aerodromo do Coentral [CLOSED]

Public forecast

Using degrees Celsius for public forecast. Weather courtesy of forecast.io.

Closest aviation weather report (METAR) to Aerodromo do Coentral

Closest report is Monte Real Air Base, 36.7 nm (68.0 km) WSW. Retrieved 2022/06/29 10:00 UTC (16 minutes ago):

LPMR 291000Z 36016KT 9999 FEW015 BKN025 19/12 Q1019

Closest aviation forecast (TAF) to Aerodromo do Coentral

Forecast is more than 12 hours old.

Closest forecast is Covilhã Hospital Helipad, 32.7 nm (60.5 km) ENE. Retrieved 2010/03/02 21:54 UTC (12 years ago):

TAF TLPCL 022154Z 0300/0400 10018KT 9999 SCT026 SCT300